Time;durP1;ratioP1;P1;durP2;ratioP2;P2;SDS_P1;SDS_P2;PMS_P1;PMS_P2;Temp;Humidity;BMP_temperature;BMP_pressure;BME280_temperature;BME280_humidity;BME280_pressure;Samples;Min_cycle;Max_cycle;Signal;HPM_P1;HPM_P2
2020/12/31 00:00:09;;;;;;;4.87;4.20;;;-0.20;99.90;;;;;;5013229;28;20529;-73
2020/12/31 00:02:37;;;;;;;5.20;4.47;;;-0.20;99.90;;;;;;5012606;28;20480;-74
2020/12/31 00:05:04;;;;;;;6.67;4.03;;;-0.20;99.90;;;;;;5013421;28;20424;-74
2020/12/31 00:07:31;;;;;;;5.97;4.67;;;-0.20;99.90;;;;;;5014219;28;20440;-73
2020/12/31 00:09:57;;;;;;;6.30;5.17;;;-0.20;99.90;;;;;;5013629;28;20502;-74
2020/12/31 00:12:24;;;;;;;5.57;4.00;;;-0.20;99.90;;;;;;5013254;28;20471;-74
2020/12/31 00:14:51;;;;;;;5.17;4.30;;;-0.20;99.90;;;;;;5013481;28;20440;-74
2020/12/31 00:17:17;;;;;;;4.87;4.27;;;-0.20;99.90;;;;;;5013202;28;20880;-74
2020/12/31 00:19:45;;;;;;;5.47;4.97;;;-0.20;99.90;;;;;;5013266;28;20456;-74
2020/12/31 00:22:12;;;;;;;4.80;4.30;;;-0.20;99.90;;;;;;5013195;28;20457;-74
2020/12/31 00:24:38;;;;;;;4.40;3.90;;;-0.20;99.90;;;;;;5013168;28;20447;-74
2020/12/31 00:27:06;;;;;;;5.07;3.83;;;-0.20;99.90;;;;;;5012065;28;20425;-73
2020/12/31 00:29:33;;;;;;;6.70;4.93;;;-0.30;99.90;;;;;;5011298;28;20471;-72
2020/12/31 00:32:00;;;;;;;5.73;4.83;;;-0.30;99.90;;;;;;5011020;28;20469;-72
2020/12/31 00:34:27;;;;;;;5.80;4.50;;;-0.20;99.90;;;;;;5011427;28;20421;-72
2020/12/31 00:36:55;;;;;;;7.40;4.83;;;-0.30;99.90;;;;;;5011427;28;20425;-72
2020/12/31 00:39:22;;;;;;;5.73;5.00;;;-0.30;99.90;;;;;;5011373;28;20778;-72
2020/12/31 00:41:49;;;;;;;5.97;5.37;;;-0.30;99.90;;;;;;5011035;28;20519;-73
2020/12/31 00:44:15;;;;;;;6.03;4.37;;;-0.30;99.90;;;;;;5011242;28;20494;-73
2020/12/31 00:46:42;;;;;;;7.03;5.27;;;-0.30;99.90;;;;;;5011112;28;20486;-72
2020/12/31 00:49:09;;;;;;;6.30;5.40;;;-0.30;99.90;;;;;;5011108;28;20433;-74
2020/12/31 00:51:35;;;;;;;8.23;6.07;;;-0.30;99.90;;;;;;5011087;28;20942;-73
2020/12/31 00:54:03;;;;;;;10.23;5.80;;;-0.30;99.90;;;;;;5011316;28;20946;-72
2020/12/31 00:56:30;;;;;;;8.40;5.40;;;-0.30;99.90;;;;;;5015074;28;20839;-73
2020/12/31 00:58:56;;;;;;;9.17;6.37;;;-0.30;99.90;;;;;;5015316;28;20433;-73
2020/12/31 01:01:23;;;;;;;8.97;6.10;;;-0.30;99.90;;;;;;5014914;28;20464;-73
2020/12/31 01:03:50;;;;;;;7.30;6.60;;;-0.30;99.90;;;;;;5015295;28;20444;-74
2020/12/31 01:06:17;;;;;;;9.40;6.00;;;-0.30;99.90;;;;;;5014820;28;20428;-72
2020/12/31 01:08:43;;;;;;;11.80;7.00;;;-0.20;99.90;;;;;;5014933;28;20455;-73
2020/12/31 01:11:11;;;;;;;9.53;6.43;;;-0.10;99.90;;;;;;5014761;28;20453;-72
2020/12/31 01:13:38;;;;;;;8.67;6.63;;;-0.20;99.90;;;;;;5014941;28;20835;-72
2020/12/31 01:16:04;;;;;;;7.70;5.97;;;-0.20;99.90;;;;;;5015181;28;20430;-72
2020/12/31 01:18:31;;;;;;;9.17;6.53;;;-0.20;99.90;;;;;;5014881;28;20490;-72
2020/12/31 01:20:58;;;;;;;7.83;6.10;;;-0.20;99.90;;;;;;5014482;28;20440;-73
2020/12/31 01:23:24;;;;;;;9.37;6.03;;;-0.20;99.90;;;;;;5014771;28;20975;-74
2020/12/31 01:25:52;;;;;;;7.97;5.97;;;-0.20;99.90;;;;;;5014655;28;20428;-73
2020/12/31 01:28:19;;;;;;;8.53;5.67;;;-0.20;99.90;;;;;;5014780;28;20475;-74
2020/12/31 01:30:46;;;;;;;8.10;5.43;;;-0.20;99.90;;;;;;5014157;28;20444;-73
2020/12/31 01:33:13;;;;;;;9.93;7.03;;;-0.30;99.90;;;;;;5014443;28;20470;-74
2020/12/31 01:35:39;;;;;;;8.27;6.87;;;-0.20;99.90;;;;;;5014223;28;20582;-72
2020/12/31 01:38:06;;;;;;;8.40;6.40;;;-0.20;99.90;;;;;;5014290;28;20512;-73
2020/12/31 01:40:32;;;;;;;10.83;6.90;;;-0.20;99.90;;;;;;5014296;28;20488;-73
2020/12/31 01:42:59;;;;;;;10.20;7.00;;;-0.20;99.90;;;;;;5014257;28;20455;-72
2020/12/31 01:45:27;;;;;;;8.53;6.57;;;-0.30;99.90;;;;;;5014341;28;20444;-72
2020/12/31 01:47:54;;;;;;;9.03;6.30;;;-0.20;99.90;;;;;;5014218;28;20431;-72
2020/12/31 01:50:21;;;;;;;9.83;6.40;;;-0.20;99.90;;;;;;5013855;28;20949;-73
2020/12/31 01:52:49;;;;;;;7.97;6.30;;;-0.10;99.90;;;;;;5014207;28;20492;-72
2020/12/31 01:55:15;;;;;;;16.27;7.63;;;-0.20;99.90;;;;;;5014567;28;20467;-72
2020/12/31 01:57:42;;;;;;;8.93;6.47;;;-0.20;99.90;;;;;;5013952;28;20451;-72
2020/12/31 02:00:10;;;;;;;9.60;6.73;;;-0.10;99.90;;;;;;5014221;28;20969;-72
2020/12/31 02:02:37;;;;;;;8.07;5.93;;;-0.20;99.90;;;;;;5013801;28;20452;-73
2020/12/31 02:05:04;;;;;;;9.80;5.63;;;-0.20;99.90;;;;;;5013832;28;20921;-72
2020/12/31 02:07:31;;;;;;;10.20;5.37;;;-0.20;99.90;;;;;;5012923;28;20432;-72
2020/12/31 02:09:57;;;;;;;15.33;6.60;;;-0.10;99.90;;;;;;5014004;28;20433;-72
2020/12/31 02:12:25;;;;;;;8.80;5.30;;;-0.10;99.90;;;;;;5013523;28;20478;-71
2020/12/31 02:14:52;;;;;;;7.73;5.90;;;-0.10;99.90;;;;;;5013869;28;20416;-72
2020/12/31 02:17:19;;;;;;;9.03;6.53;;;-0.10;99.90;;;;;;4996042;28;20445;-73
2020/12/31 02:19:47;;;;;;;9.27;6.43;;;-0.10;99.90;;;;;;4994200;28;20425;-72
2020/12/31 02:22:15;;;;;;;8.57;6.20;;;-0.10;99.90;;;;;;4993817;28;20456;-73
2020/12/31 02:24:42;;;;;;;8.87;7.13;;;-0.10;99.90;;;;;;4993850;28;20460;-72
2020/12/31 02:27:09;;;;;;;11.60;6.70;;;-0.20;99.90;;;;;;4994006;28;20503;-72
2020/12/31 02:29:35;;;;;;;9.03;7.77;;;-0.10;99.90;;;;;;4993901;28;20441;-72
2020/12/31 02:32:02;;;;;;;7.97;6.00;;;-0.10;99.90;;;;;;4993623;28;20469;-72
2020/12/31 02:34:29;;;;;;;8.30;6.53;;;-0.20;99.90;;;;;;4993851;28;20915;-72
2020/12/31 02:36:56;;;;;;;8.33;6.63;;;-0.20;99.90;;;;;;4993693;28;20427;-72
2020/12/31 02:39:23;;;;;;;7.80;5.80;;;-0.30;99.90;;;;;;4993764;28;20434;-73
2020/12/31 02:41:50;;;;;;;8.07;6.33;;;-0.40;99.90;;;;;;4993691;28;20468;-73
2020/12/31 02:44:17;;;;;;;9.07;5.93;;;-0.40;99.90;;;;;;4993697;28;20434;-72
2020/12/31 02:46:43;;;;;;;7.13;5.97;;;-0.50;99.90;;;;;;4993808;28;20525;-73
2020/12/31 02:49:10;;;;;;;8.30;5.87;;;-0.40;99.90;;;;;;4993618;28;20776;-73
2020/12/31 02:51:37;;;;;;;21.60;6.53;;;-0.40;99.90;;;;;;4993020;28;20477;-73
2020/12/31 02:54:03;;;;;;;8.40;5.83;;;-0.50;99.90;;;;;;4993756;28;20432;-72
2020/12/31 02:56:32;;;;;;;6.40;5.47;;;-0.50;99.90;;;;;;4993614;28;20438;-72
2020/12/31 02:58:59;;;;;;;9.57;6.07;;;-0.50;99.90;;;;;;4993288;28;20522;-72
2020/12/31 03:01:26;;;;;;;9.50;5.80;;;-0.60;99.90;;;;;;4993322;28;20452;-74
2020/12/31 03:03:53;;;;;;;5.80;5.20;;;-0.60;99.90;;;;;;4993339;28;20430;-72
2020/12/31 03:06:19;;;;;;;7.50;6.50;;;-0.60;99.90;;;;;;4993052;28;20491;-73
2020/12/31 03:08:48;;;;;;;9.60;6.10;;;-0.70;99.90;;;;;;4993224;28;20426;-73
2020/12/31 03:11:16;;;;;;;8.50;6.30;;;-0.70;99.90;;;;;;4993065;28;20456;-73
2020/12/31 03:13:43;;;;;;;8.93;6.10;;;-0.70;99.90;;;;;;4993196;28;20943;-72
2020/12/31 03:16:10;;;;;;;12.63;5.57;;;-0.70;99.90;;;;;;5001512;28;20424;-72
2020/12/31 03:18:37;;;;;;;7.60;6.00;;;-0.70;99.90;;;;;;5012445;28;20885;-72
2020/12/31 03:21:04;;;;;;;5.40;4.90;;;-0.60;99.90;;;;;;5012583;28;20445;-72
2020/12/31 03:23:31;;;;;;;7.20;6.50;;;-0.80;99.90;;;;;;5012612;28;20519;-72
2020/12/31 03:25:58;;;;;;;8.53;5.70;;;-0.80;99.90;;;;;;5012949;28;20425;-72
2020/12/31 03:28:24;;;;;;;7.30;5.87;;;-0.90;99.90;;;;;;5012606;28;20443;-73
2020/12/31 03:30:52;;;;;;;6.60;5.17;;;-1.00;99.90;;;;;;5012200;28;20427;-73
2020/12/31 03:33:19;;;;;;;10.20;5.97;;;-1.20;99.90;;;;;;5012106;28;20468;-72
2020/12/31 03:35:47;;;;;;;10.20;6.97;;;-1.10;99.90;;;;;;5012164;28;20472;-73
2020/12/31 03:38:14;;;;;;;7.90;5.63;;;-1.20;99.90;;;;;;5012437;28;20917;-72
2020/12/31 03:40:41;;;;;;;7.57;5.43;;;-1.30;99.90;;;;;;5012140;28;20425;-73
2020/12/31 03:43:09;;;;;;;8.83;6.17;;;-1.30;99.90;;;;;;5012189;28;20429;-73
2020/12/31 03:45:36;;;;;;;9.23;6.43;;;-1.20;99.90;;;;;;5012265;28;20437;-73
2020/12/31 03:48:04;;;;;;;6.83;5.20;;;-1.30;99.90;;;;;;5012509;28;20484;-73
2020/12/31 03:50:32;;;;;;;7.87;5.20;;;-1.30;99.90;;;;;;5012052;28;20944;-72
2020/12/31 03:52:58;;;;;;;6.63;4.33;;;-1.30;99.90;;;;;;5012145;28;20480;-72
2020/12/31 03:55:25;;;;;;;9.97;6.13;;;-1.40;99.90;;;;;;5012091;28;20432;-73
2020/12/31 03:57:52;;;;;;;5.20;4.27;;;-1.50;99.90;;;;;;5012089;28;20836;-72
2020/12/31 04:00:19;;;;;;;7.40;5.10;;;-1.50;99.90;;;;;;5011981;28;20515;-72
2020/12/31 04:02:45;;;;;;;8.67;5.63;;;-1.60;99.90;;;;;;5011862;28;20448;-73
2020/12/31 04:05:13;;;;;;;8.43;5.13;;;-1.70;99.90;;;;;;5012028;28;20456;-72
2020/12/31 04:07:39;;;;;;;6.87;5.87;;;-1.70;99.90;;;;;;5011869;28;20433;-73
2020/12/31 04:10:06;;;;;;;7.20;5.60;;;-1.70;99.90;;;;;;5011879;28;20431;-73
2020/12/31 04:12:33;;;;;;;6.30;4.60;;;-1.70;99.90;;;;;;5011581;28;20464;-73
2020/12/31 04:15:00;;;;;;;8.07;5.43;;;-1.80;99.90;;;;;;5011723;28;20439;-73
2020/12/31 04:17:26;;;;;;;8.40;5.40;;;-1.80;99.90;;;;;;5011854;28;20434;-72
2020/12/31 04:19:53;;;;;;;6.83;5.40;;;-1.80;99.90;;;;;;5011805;28;20465;-73
2020/12/31 04:22:21;;;;;;;5.93;4.90;;;-1.90;99.90;;;;;;5011657;28;20455;-73
2020/12/31 04:24:51;;;;;;;10.23;6.27;;;-1.90;99.90;;;;;;5011657;28;20425;-72
2020/12/31 04:27:20;;;;;;;19.53;10.87;;;-1.80;99.90;;;;;;5012187;28;20902;-72
2020/12/31 04:29:46;;;;;;;28.70;15.73;;;-1.80;99.90;;;;;;5010889;28;20961;-72
2020/12/31 04:32:13;;;;;;;30.27;17.17;;;-1.80;99.90;;;;;;5011256;28;20873;-73
2020/12/31 04:34:40;;;;;;;18.30;11.57;;;-1.80;99.90;;;;;;5011594;28;20436;-73
2020/12/31 04:37:06;;;;;;;18.10;10.77;;;-1.70;99.90;;;;;;5011395;28;20440;-73
2020/12/31 04:39:34;;;;;;;10.87;7.90;;;-1.80;99.90;;;;;;5011530;28;20516;-72
2020/12/31 04:42:01;;;;;;;11.17;7.33;;;-1.80;99.90;;;;;;5011452;28;20460;-72
2020/12/31 04:44:29;;;;;;;9.30;6.40;;;-1.80;99.90;;;;;;5011890;28;20428;-72
2020/12/31 04:46:57;;;;;;;7.73;6.23;;;-1.80;99.90;;;;;;4997539;28;20437;-72
2020/12/31 04:49:29;;;;;;;11.73;7.80;;;-1.70;99.90;;;;;;4992242;28;20791;-72
2020/12/31 04:51:56;;;;;;;12.40;8.53;;;-1.60;99.90;;;;;;5008968;28;20479;-73
2020/12/31 04:54:23;;;;;;;10.60;6.53;;;-1.60;99.90;;;;;;5012427;28;20708;-72
2020/12/31 04:56:51;;;;;;;11.03;7.50;;;-1.50;99.90;;;;;;5012254;28;20444;-72
2020/12/31 04:59:18;;;;;;;9.67;6.90;;;-1.40;99.90;;;;;;5012119;28;20424;-70
2020/12/31 05:01:46;;;;;;;16.33;7.70;;;-1.30;99.90;;;;;;5010459;28;20461;-70
2020/12/31 05:04:13;;;;;;;12.80;7.10;;;-1.30;99.90;;;;;;5011329;28;20436;-71
2020/12/31 05:06:41;;;;;;;9.27;6.80;;;-1.20;99.90;;;;;;5010855;28;20468;-72
2020/12/31 05:09:15;;;;;;;8.50;5.80;;;-1.30;99.90;;;;;;5010799;28;20445;-69
2020/12/31 05:11:46;;;;;;;12.93;7.97;;;-1.30;99.90;;;;;;5010560;28;20449;-70
2020/12/31 05:14:13;;;;;;;8.50;6.30;;;-1.30;99.90;;;;;;5011111;28;20436;-71
2020/12/31 05:16:40;;;;;;;8.93;6.67;;;-1.30;99.90;;;;;;5010880;28;20429;-70
2020/12/31 05:19:22;;;;;;;10.90;7.83;;;-1.30;99.90;;;;;;5010721;28;20429;-71
2020/12/31 05:22:09;;;;;;;8.03;6.03;;;-1.30;99.90;;;;;;5007549;28;20457;-69
2020/12/31 05:24:35;;;;;;;11.37;7.07;;;-1.30;99.90;;;;;;5010836;28;20425;-69
2020/12/31 05:27:25;;;;;;;12.53;8.17;;;-1.30;99.90;;;;;;5010821;28;20424;-73
2020/12/31 05:30:06;;;;;;;11.17;7.77;;;-1.20;99.90;;;;;;5011341;28;20975;-72
2020/12/31 05:32:34;;;;;;;13.27;7.07;;;-1.20;99.90;;;;;;5011256;28;20483;-72
2020/12/31 05:35:01;;;;;;;8.57;6.50;;;-1.20;99.90;;;;;;5011194;28;20444;-73
2020/12/31 05:37:30;;;;;;;9.63;6.57;;;-1.10;99.90;;;;;;5011234;28;20446;-70
2020/12/31 05:39:59;;;;;;;8.87;6.23;;;-1.10;99.90;;;;;;5011217;28;20503;-72
2020/12/31 05:42:27;;;;;;;10.03;7.37;;;-1.10;99.90;;;;;;5012828;28;20457;-72
2020/12/31 05:45:16;;;;;;;9.97;7.17;;;-1.20;99.90;;;;;;5015242;28;20841;-73
2020/12/31 05:47:48;;;;;;;9.27;6.20;;;-1.20;99.90;;;;;;4991147;28;20437;-72
2020/12/31 05:50:23;;;;;;;10.33;7.13;;;-1.30;99.90;;;;;;4994931;28;20442;-74
2020/12/31 05:52:51;;;;;;;9.20;7.20;;;-1.30;99.90;;;;;;4994677;28;20479;-72
2020/12/31 05:55:19;;;;;;;9.60;6.43;;;-1.50;99.90;;;;;;4994826;28;20440;-73
2020/12/31 05:57:48;;;;;;;10.67;6.57;;;-1.50;99.90;;;;;;4994696;28;20476;-72
2020/12/31 06:00:18;;;;;;;6.97;6.13;;;-1.60;99.90;;;;;;4995146;28;20865;-73
2020/12/31 06:02:47;;;;;;;10.50;6.93;;;-1.70;99.90;;;;;;4995074;28;20796;-72
2020/12/31 06:05:15;;;;;;;10.60;6.43;;;-1.70;99.90;;;;;;4995454;28;20426;-73
2020/12/31 06:07:44;;;;;;;12.40;7.40;;;-1.80;99.90;;;;;;4996163;28;20430;-72
2020/12/31 06:10:14;;;;;;;8.43;6.47;;;-1.90;99.90;;;;;;4994873;28;20430;-73
2020/12/31 06:12:49;;;;;;;8.80;6.80;;;-1.90;99.90;;;;;;4994907;28;20481;-72
2020/12/31 06:15:22;;;;;;;8.57;6.97;;;-1.80;99.90;;;;;;4996170;28;20418;-73
2020/12/31 06:17:50;;;;;;;9.37;7.17;;;-2.00;99.90;;;;;;5014672;28;20813;-73
2020/12/31 06:20:17;;;;;;;10.80;7.90;;;-1.90;99.90;;;;;;5013894;28;20431;-73
2020/12/31 06:23:03;;;;;;;14.70;8.57;;;-2.10;99.90;;;;;;5014211;28;20542;-72
2020/12/31 06:25:35;;;;;;;15.10;10.70;;;-2.10;99.90;;;;;;5014942;28;20464;-73
2020/12/31 06:28:06;;;;;;;20.30;12.70;;;-2.10;99.90;;;;;;5013564;28;20409;-73
2020/12/31 06:30:35;;;;;;;27.57;16.20;;;-2.20;99.90;;;;;;5013522;28;20951;-72
2020/12/31 06:33:07;;;;;;;17.10;11.43;;;-2.20;99.90;;;;;;5013814;28;20555;-73
2020/12/31 06:35:34;;;;;;;15.00;9.83;;;-2.20;99.90;;;;;;5013826;28;20433;-72
2020/12/31 06:38:01;;;;;;;12.97;9.10;;;-2.20;99.90;;;;;;5013873;28;20432;-73
2020/12/31 06:40:29;;;;;;;11.50;9.10;;;-2.20;99.90;;;;;;5013742;28;20535;-72
2020/12/31 06:43:05;;;;;;;11.77;8.60;;;-2.20;99.90;;;;;;5013325;28;20512;-73
2020/12/31 06:45:40;;;;;;;12.30;9.37;;;-2.10;99.90;;;;;;5013603;28;20975;-72
2020/12/31 06:48:35;;;;;;;18.40;12.77;;;-2.10;99.90;;;;;;5013461;28;20462;-75
2020/12/31 06:51:03;;;;;;;13.67;10.23;;;-2.10;99.90;;;;;;5012730;28;20448;-71
2020/12/31 06:53:32;;;;;;;18.33;12.03;;;-2.10;99.90;;;;;;5012907;28;20465;-72
2020/12/31 06:56:01;;;;;;;13.83;8.87;;;-2.00;99.90;;;;;;5013462;28;20443;-73
2020/12/31 06:58:27;;;;;;;13.83;9.50;;;-1.90;99.90;;;;;;5013191;28;20493;-73
2020/12/31 07:00:56;;;;;;;13.90;9.53;;;-1.80;99.90;;;;;;5013026;28;20435;-73
2020/12/31 07:03:45;;;;;;;15.07;11.50;;;-1.80;99.90;;;;;;5012982;28;20437;-73
2020/12/31 07:06:29;;;;;;;11.37;8.93;;;-1.80;99.90;;;;;;5012954;28;20945;-73
2020/12/31 07:08:57;;;;;;;11.60;8.40;;;-1.80;99.90;;;;;;5013030;28;20895;-72
2020/12/31 07:11:35;;;;;;;13.37;9.30;;;-1.80;99.90;;;;;;5012486;28;20492;-73
2020/12/31 07:14:20;;;;;;;13.20;8.97;;;-1.70;99.90;;;;;;5012004;28;20494;-72
2020/12/31 07:17:00;;;;;;;13.23;8.57;;;-1.70;99.90;;;;;;5011696;28;20491;-70
2020/12/31 07:19:43;;;;;;;8.77;7.00;;;-1.40;99.90;;;;;;5012308;28;20439;-69
2020/12/31 07:22:21;;;;;;;12.60;10.30;;;-1.30;99.90;;;;;;4992537;28;20454;-70
2020/12/31 07:24:53;;;;;;;16.93;11.70;;;-1.20;99.90;;;;;;4992676;28;20429;-70
2020/12/31 07:27:21;;;;;;;14.67;9.77;;;-1.00;99.90;;;;;;4998047;28;20456;-68
2020/12/31 07:30:19;;;;;;;10.73;9.33;;;-1.00;99.90;;;;;;5022975;28;20443;-71
2020/12/31 07:32:55;;;;;;;13.50;10.57;;;-0.90;99.90;;;;;;5029347;28;20475;-71
2020/12/31 07:35:30;;;;;;;13.20;9.40;;;-0.90;99.90;;;;;;5011842;28;20452;-69
2020/12/31 07:37:59;;;;;;;20.60;13.17;;;-1.00;99.90;;;;;;5011991;28;20499;-69
2020/12/31 07:40:38;;;;;;;22.83;16.10;;;-1.00;99.90;;;;;;5011841;28;20445;-69
2020/12/31 07:43:06;;;;;;;15.93;12.90;;;-1.00;99.90;;;;;;5011720;28;20470;-69
2020/12/31 07:45:33;;;;;;;15.27;10.30;;;-0.90;99.90;;;;;;5018489;28;20913;-68
2020/12/31 07:48:01;;;;;;;11.90;9.57;;;-0.90;99.90;;;;;;5031487;28;20980;-68
2020/12/31 07:50:31;;;;;;;11.77;9.20;;;-0.80;99.90;;;;;;5023469;28;20956;-69
2020/12/31 07:52:59;;;;;;;12.87;9.50;;;-0.70;99.90;;;;;;5011380;28;20472;-68
2020/12/31 07:55:26;;;;;;;13.80;10.77;;;-0.70;99.90;;;;;;5011807;28;20440;-69
2020/12/31 07:57:53;;;;;;;12.23;9.30;;;-0.70;99.90;;;;;;5011425;28;20428;-68
2020/12/31 08:00:21;;;;;;;13.27;9.07;;;-0.70;99.90;;;;;;5011673;28;20444;-67
2020/12/31 08:02:50;;;;;;;19.27;11.83;;;-0.60;99.90;;;;;;5011244;28;20452;-66
2020/12/31 08:05:18;;;;;;;17.30;11.83;;;-0.40;99.90;;;;;;5010763;28;20432;-67
2020/12/31 08:07:49;;;;;;;23.57;14.50;;;-0.30;99.90;;;;;;5011322;28;20521;-67
2020/12/31 08:10:16;;;;;;;32.27;18.63;;;-0.20;99.90;;;;;;5011414;28;20447;-66
2020/12/31 08:12:53;;;;;;;28.73;14.77;;;-0.10;99.90;;;;;;5010656;28;20483;-67
2020/12/31 08:15:21;;;;;;;26.40;13.50;;;0.00;99.90;;;;;;5011379;28;20478;-69
2020/12/31 08:17:52;;;;;;;24.20;15.93;;;0.10;99.90;;;;;;5011198;28;20465;-68
2020/12/31 08:20:21;;;;;;;31.00;18.93;;;0.20;99.90;;;;;;5010902;28;21119;-66
2020/12/31 08:22:53;;;;;;;35.37;20.50;;;0.20;99.90;;;;;;5023855;28;20478;-67
2020/12/31 08:25:25;;;;;;;31.03;16.27;;;0.30;99.90;;;;;;5030701;28;20451;-67
2020/12/31 08:27:55;;;;;;;18.10;11.73;;;0.50;99.90;;;;;;5030770;28;20424;-66
2020/12/31 08:30:22;;;;;;;16.10;11.07;;;0.60;99.90;;;;;;5030744;28;20435;-67
2020/12/31 08:32:54;;;;;;;12.00;8.67;;;0.70;99.90;;;;;;5030426;28;20525;-67
2020/12/31 08:35:27;;;;;;;20.30;12.07;;;0.70;99.90;;;;;;5030737;28;20461;-67
2020/12/31 08:38:01;;;;;;;12.00;8.00;;;0.90;99.90;;;;;;5030620;28;20447;-67
2020/12/31 08:40:30;;;;;;;9.60;7.27;;;1.00;99.90;;;;;;5030536;28;20434;-67
2020/12/31 08:42:57;;;;;;;9.20;6.33;;;1.10;99.90;;;;;;5030260;28;20451;-67
2020/12/31 08:45:29;;;;;;;7.10;6.40;;;0.90;99.90;;;;;;5030676;28;20537;-67
2020/12/31 08:48:11;;;;;;;8.10;6.50;;;1.00;99.90;;;;;;5030637;28;20775;-67
2020/12/31 08:50:40;;;;;;;6.53;5.93;;;0.90;99.90;;;;;;5018866;28;20448;-67
2020/12/31 08:53:06;;;;;;;8.70;7.13;;;0.90;99.90;;;;;;5010633;28;20495;-67
2020/12/31 08:55:37;;;;;;;8.30;6.77;;;1.10;99.90;;;;;;5010867;28;20425;-67
2020/12/31 08:58:17;;;;;;;7.90;6.97;;;1.10;99.90;;;;;;5010940;28;20482;-67
2020/12/31 09:00:44;;;;;;;6.37;5.13;;;1.20;99.90;;;;;;5010820;28;20420;-67
2020/12/31 09:03:11;;;;;;;7.47;5.50;;;1.30;99.90;;;;;;5010690;28;20519;-66
2020/12/31 09:05:39;;;;;;;6.50;5.23;;;1.40;99.90;;;;;;5008815;28;20456;-66
2020/12/31 09:08:06;;;;;;;6.67;5.97;;;1.40;99.90;;;;;;5009260;28;20429;-67
2020/12/31 09:10:34;;;;;;;6.83;6.20;;;1.40;99.90;;;;;;5010741;28;20817;-66
2020/12/31 09:13:02;;;;;;;10.60;6.10;;;1.40;99.90;;;;;;5010493;28;20907;-67
2020/12/31 09:15:29;;;;;;;6.60;5.53;;;1.30;99.90;;;;;;5011276;28;20953;-66
2020/12/31 09:17:56;;;;;;;7.93;5.80;;;1.30;99.90;;;;;;5014819;28;20424;-67
2020/12/31 09:20:25;;;;;;;6.93;6.20;;;1.30;99.90;;;;;;5014118;28;20432;-66
2020/12/31 09:22:53;;;;;;;20.03;5.83;;;1.30;99.90;;;;;;5014492;28;20452;-67
2020/12/31 09:25:21;;;;;;;8.20;5.73;;;1.30;99.90;;;;;;5014546;28;20429;-66
2020/12/31 09:27:47;;;;;;;6.53;4.30;;;1.30;99.90;;;;;;5014512;28;20483;-66
2020/12/31 09:30:16;;;;;;;6.07;5.17;;;1.30;99.90;;;;;;5014386;28;20444;-66
2020/12/31 09:32:47;;;;;;;7.20;4.87;;;1.30;99.90;;;;;;5014103;28;20965;-66
2020/12/31 09:35:14;;;;;;;6.57;5.83;;;1.20;99.90;;;;;;5014194;28;20506;-66
2020/12/31 09:37:49;;;;;;;5.07;4.57;;;1.30;99.90;;;;;;5014300;28;20433;-66
2020/12/31 09:40:17;;;;;;;3.90;3.60;;;1.30;99.90;;;;;;5014161;28;20432;-66
2020/12/31 09:42:44;;;;;;;5.47;4.40;;;1.20;99.90;;;;;;5014020;28;20448;-65
2020/12/31 09:45:11;;;;;;;4.67;4.20;;;1.20;99.90;;;;;;5014113;28;20474;-66
2020/12/31 09:47:38;;;;;;;4.30;3.90;;;1.40;99.90;;;;;;5014118;28;20457;-66
2020/12/31 09:50:08;;;;;;;4.23;3.80;;;1.40;99.90;;;;;;5013901;28;20443;-66
2020/12/31 09:52:35;;;;;;;5.33;4.07;;;1.40;99.90;;;;;;5013788;28;20472;-66
2020/12/31 09:55:02;;;;;;;5.50;3.47;;;1.40;99.90;;;;;;5014015;28;20429;-66
2020/12/31 09:57:29;;;;;;;3.27;2.97;;;1.50;99.90;;;;;;5013918;28;20460;-66
2020/12/31 09:59:56;;;;;;;5.80;4.30;;;1.50;99.90;;;;;;5013963;28;20923;-66
2020/12/31 10:02:23;;;;;;;4.33;3.93;;;1.50;99.90;;;;;;5013589;28;20449;-66
2020/12/31 10:04:49;;;;;;;4.60;3.93;;;1.70;99.90;;;;;;5013972;28;20868;-66
2020/12/31 10:07:16;;;;;;;4.50;4.10;;;1.50;99.90;;;;;;5013395;28;20432;-66
2020/12/31 10:09:43;;;;;;;5.10;4.60;;;1.50;99.90;;;;;;5013810;28;20429;-66
2020/12/31 10:12:12;;;;;;;4.77;4.13;;;1.30;99.90;;;;;;5013473;28;20517;-68
2020/12/31 10:14:40;;;;;;;3.97;3.53;;;1.40;99.90;;;;;;5013691;28;20945;-66
2020/12/31 10:17:07;;;;;;;4.43;3.97;;;1.20;99.90;;;;;;5013519;28;20437;-66
2020/12/31 10:19:34;;;;;;;4.23;3.80;;;1.30;99.90;;;;;;5013470;28;20437;-66
2020/12/31 10:22:00;;;;;;;4.87;3.90;;;1.50;99.90;;;;;;5012978;28;20449;-66
2020/12/31 10:24:27;;;;;;;5.63;4.10;;;1.60;99.90;;;;;;5013536;28;20809;-66
2020/12/31 10:26:54;;;;;;;6.90;4.70;;;1.70;99.90;;;;;;5013087;28;20926;-66
2020/12/31 10:29:20;;;;;;;4.23;3.83;;;1.80;99.90;;;;;;5013003;28;20456;-68
2020/12/31 10:31:51;;;;;;;6.50;4.87;;;1.90;99.90;;;;;;5013051;28;20440;-66
2020/12/31 10:34:18;;;;;;;5.43;3.83;;;1.90;99.90;;;;;;5013242;28;20498;-66
2020/12/31 10:36:50;;;;;;;4.87;3.97;;;1.80;99.90;;;;;;5012884;28;20433;-66
2020/12/31 10:39:17;;;;;;;14.43;4.30;;;1.80;99.90;;;;;;5013121;28;20429;-66
2020/12/31 10:41:44;;;;;;;6.07;5.03;;;1.90;99.90;;;;;;5013060;28;20953;-68
2020/12/31 10:44:10;;;;;;;4.50;4.10;;;2.00;99.90;;;;;;5013051;28;20439;-66
2020/12/31 10:46:37;;;;;;;5.03;4.03;;;1.90;99.90;;;;;;5012830;28;20436;-66
2020/12/31 10:49:05;;;;;;;4.40;3.20;;;1.80;99.90;;;;;;5013021;28;20486;-66
2020/12/31 10:51:34;;;;;;;4.93;4.07;;;1.70;99.90;;;;;;5012315;28;20608;-66
2020/12/31 10:54:00;;;;;;;4.67;4.17;;;1.60;99.90;;;;;;5013085;28;20547;-66
2020/12/31 10:56:27;;;;;;;4.90;4.30;;;1.50;99.90;;;;;;5012805;28;20774;-66
2020/12/31 10:58:54;;;;;;;8.13;4.50;;;1.50;99.90;;;;;;5012768;28;20930;-66
2020/12/31 11:01:21;;;;;;;4.07;3.53;;;1.40;99.90;;;;;;5012383;28;20997;-67
2020/12/31 11:03:47;;;;;;;9.20;4.20;;;1.50;99.90;;;;;;5012796;28;20471;-66
2020/12/31 11:06:22;;;;;;;4.23;3.80;;;1.70;99.90;;;;;;5012574;28;20463;-66
2020/12/31 11:08:49;;;;;;;6.97;4.30;;;1.80;99.90;;;;;;5012543;28;20474;-66
2020/12/31 11:11:18;;;;;;;4.87;4.27;;;1.90;99.90;;;;;;5012434;28;20452;-66
2020/12/31 11:13:44;;;;;;;4.23;3.60;;;2.10;99.90;;;;;;5012294;28;20476;-66
2020/12/31 11:16:11;;;;;;;5.97;4.37;;;2.40;99.90;;;;;;5012706;28;20425;-66
2020/12/31 11:18:39;;;;;;;4.80;4.30;;;2.60;99.90;;;;;;5012292;28;20448;-66
2020/12/31 11:21:06;;;;;;;7.10;4.60;;;2.60;99.90;;;;;;5011905;28;20453;-66
2020/12/31 11:23:34;;;;;;;7.27;3.80;;;2.50;99.90;;;;;;5012334;28;20872;-66
2020/12/31 11:26:01;;;;;;;4.80;3.73;;;2.40;99.90;;;;;;5012581;28;20429;-66
2020/12/31 11:28:28;;;;;;;7.63;4.23;;;2.30;99.90;;;;;;5012167;28;20433;-66
2020/12/31 11:30:55;;;;;;;3.33;3.03;;;2.20;99.90;;;;;;5012069;28;20432;-66
2020/12/31 11:33:21;;;;;;;4.27;3.53;;;2.20;99.90;;;;;;5012027;28;20559;-67
2020/12/31 11:35:48;;;;;;;4.00;3.57;;;2.20;99.90;;;;;;5011953;28;20436;-66
2020/12/31 11:38:15;;;;;;;4.47;4.07;;;2.20;99.90;;;;;;5011905;28;20440;-66
2020/12/31 11:40:43;;;;;;;5.03;3.90;;;2.20;99.90;;;;;;5012162;28;21106;-66
2020/12/31 11:43:09;;;;;;;3.67;3.37;;;2.20;99.90;;;;;;5011761;28;21213;-66
2020/12/31 11:45:36;;;;;;;4.43;4.03;;;2.30;99.90;;;;;;5011973;28;20436;-65
2020/12/31 11:48:03;;;;;;;4.20;3.60;;;2.20;99.90;;;;;;5011948;28;20435;-66
2020/12/31 11:50:30;;;;;;;3.83;3.30;;;2.10;99.90;;;;;;5011483;28;20441;-68
2020/12/31 11:52:56;;;;;;;5.63;3.83;;;2.20;99.90;;;;;;5011612;28;20587;-68
2020/12/31 11:55:23;;;;;;;5.63;3.70;;;2.30;99.90;;;;;;5011589;28;20424;-68
2020/12/31 11:57:50;;;;;;;3.60;3.30;;;2.30;99.90;;;;;;5011799;28;20491;-68
2020/12/31 12:00:18;;;;;;;6.27;3.70;;;2.20;99.90;;;;;;5011611;28;20435;-68
2020/12/31 12:02:45;;;;;;;4.40;4.00;;;2.20;99.90;;;;;;5011604;28;20456;-68
2020/12/31 12:05:12;;;;;;;5.37;3.97;;;2.10;99.90;;;;;;5011595;28;20953;-68
2020/12/31 12:07:46;;;;;;;6.77;4.20;;;2.10;99.90;;;;;;5011249;28;20440;-68
2020/12/31 12:10:13;;;;;;;6.53;4.10;;;2.20;99.90;;;;;;5011341;28;20440;-68
2020/12/31 12:12:40;;;;;;;4.43;3.27;;;2.20;99.90;;;;;;5011120;28;20476;-68
2020/12/31 12:15:08;;;;;;;8.70;3.50;;;2.10;99.90;;;;;;5011534;28;20455;-68
2020/12/31 12:17:35;;;;;;;5.47;4.07;;;2.10;99.90;;;;;;5011632;28;20425;-68
2020/12/31 12:20:03;;;;;;;5.03;4.27;;;2.30;99.90;;;;;;5011461;28;20474;-67
2020/12/31 12:22:30;;;;;;;28.47;13.50;;;2.40;99.90;;;;;;5010853;28;20467;-68
2020/12/31 12:24:56;;;;;;;6.23;5.03;;;2.50;99.90;;;;;;5011258;28;20424;-70
2020/12/31 12:27:23;;;;;;;5.40;3.63;;;2.30;99.90;;;;;;5011391;28;20437;-72
2020/12/31 12:29:50;;;;;;;5.60;4.33;;;2.30;99.90;;;;;;5011226;28;20428;-71
2020/12/31 12:32:17;;;;;;;6.30;4.83;;;2.30;99.90;;;;;;5010910;28;20458;-71
2020/12/31 12:34:44;;;;;;;7.70;6.10;;;2.30;99.90;;;;;;5011347;28;20433;-71
2020/12/31 12:37:11;;;;;;;5.67;4.27;;;2.20;99.90;;;;;;5011096;28;20988;-71
2020/12/31 12:39:38;;;;;;;6.90;4.27;;;2.10;99.90;;;;;;5011121;28;20519;-71
2020/12/31 12:42:04;;;;;;;6.53;4.87;;;2.00;99.90;;;;;;5010839;28;20514;-68
2020/12/31 12:44:31;;;;;;;5.40;3.90;;;1.80;99.90;;;;;;5002827;28;20847;-72
2020/12/31 12:46:58;;;;;;;9.73;7.20;;;1.70;99.90;;;;;;4991407;28;20499;-70
2020/12/31 12:49:28;;;;;;;5.60;5.00;;;1.80;99.90;;;;;;4991465;28;20864;-70
2020/12/31 12:51:55;;;;;;;7.67;4.83;;;1.80;99.90;;;;;;5013342;28;20475;-71